ADDS METAR Data INFO
IDs: Format: Raw Decoded Include TAF

Data at: 1132 UTC 29 May 2017

KOCH 291115Z 00000KT CLR 18/17 A2994 RMK AO1
KOCH 291055Z 36003KT CLR 19/17 A2992 RMK AO1
KOCH 291035Z 00000KT CLR 19/18 A2992 RMK AO1
KOCH 291015Z 00000KT CLR 19/18 A2991 RMK AO1
KOCH 290955Z 31003KT CLR 19/18 A2990 RMK AO1
KOCH 290935Z 04003KT CLR 19/18 A2990 RMK AO1
KOCH 290915Z 05003KT FEW016 19/18 A2992 RMK AO1
KOCH 290855Z 00000KT BKN014 19/18 A2992 RMK AO1 60010 57041
KOCH 290835Z 00000KT SCT014 19/18 A2993 RMK AO1
KOCH 290815Z 36005KT FEW008 BKN012 20/18 A2991 RMK AO1
KOCH 290755Z 32004KT SCT008 20/18 A2992 RMK AO1 P0001
KOCH 290735Z 16012KT FEW034 20/18 A2985 RMK AO1 P0001
KOCH 290715Z 11006KT FEW034 SCT041 BKN050 20/18 A2994 RMK AO1 P0001
KOCH 290655Z 15007KT FEW034 SCT043 BKN050 20/18 A2998 RMK AO1 LTG DSNT E P0009
KOCH 290635Z 00000KT FEW041 SCT055 OVC070 20/18 A3000 RMK AO1 LTG DSNT NW P0007
KOCH 290615Z 19015G23KT SCT005 BKN042 OVC075 20/18 A2999 RMK AO1 LTG DSNT SE P0003
KOCH 290555Z 22012KT OVC004 20/18 A3004 RMK AO1 LTG DSNT ALQDS TSE48 P0011 60212 10210 20190 403100190 52030
KOCH 290535Z 22008KT TS BKN005 BKN013 OVC120 20/18 A3004 RMK AO1 LTG DSNT ALQDS P0005
KOCH 290515Z 19007KT TS FEW012 SCT048 BKN055 19/18 A3002 RMK AO1 LTG DSNT ALQDS P0003
KOCH 290455Z 16012KT TS SCT055 BKN070 OVC080 19/18 A3000 RMK AO1 LTG DSNT ALQDS P0036
KOCH 290435Z 14013KT VCTS FEW027 SCT039 BKN048 19/18 A3001 RMK AO1 LTG DSNT ALQDS P0030
KOCH 290415Z 13009KT TS FEW006 SCT022 BKN033 19/18 A3005 RMK AO1 LTG DSNT ALQDS P0021
KOCH 290355Z 36008KT TS BKN006 OVC021 19/18 A3007 RMK AO1 LTG DSNT ALQDS TSE0257B01E23B25 P0015
KOCH 290335Z 10006KT VCTS OVC005 19/18 A3001 RMK AO1 LTG DSNT ALQDS TSE0257B01E23B25 P0004
KOCH 290315Z 00000KT TS BKN005 BKN120 19/18 A3001 RMK AO1 LTG DSNT ALQDS TSE0257B01 P0001
KOCH 290255Z 10006KT VCTS FEW004 FEW070 SCT120 19/18 A2995 RMK AO1 LTG DSNT ALQDS P0001 60150 52027
KOCH 290235Z 18004KT TS SCT004 BKN070 19/17 A2994 RMK AO1 LTG DSNT ALQDS P0001
KOCH 290215Z 22007KT TS BKN005 19/17 A2996 RMK AO1 LTG DSNT ALQDS
KOCH 290155Z 14009KT VCTS SCT006 BKN029 19/17 A2993 RMK AO1 LTG DSNT ALQDS P0030
KOCH 290135Z 06003KT TS BKN005 BKN013 OVC025 19/17 A2994 RMK AO1 LTG DSNT ALQDS P0030
KOCH 290115Z 04004KT TS SCT005 BKN020 OVC038 19/17 A2992 RMK AO1 LTG DSNT ALQDS P0027
KOCH 290055Z 11011KT TS BKN005 BKN011 OVC019 19/17 A2994 RMK AO1 LTG DSNT ALQDS P0119
KOCH 290035Z 06003KT TS FEW008 SCT011 OVC017 19/17 A2993 RMK AO1 LTG DSNT ALQDS P0058
KOCH 290015Z 06008KT 020V100 TS FEW010 BKN019 OVC035 19/17 A2991 RMK AO1 LTG DSNT ALQDS P0026
KOCH 282355Z 35012G22KT TS FEW019 SCT026 OVC034 21/18 A2987 RMK AO1 LTG DSNT ALQDS TSB01 P0001 60001 10310 20210 57003
KOCH 282335Z 02017G35KT TS FEW018 BKN038 OVC046 26/22 A2984 RMK AO1 LTG DSNT ALQDS TSB01
KOCH 282315Z 02005KT VCTS BKN040 BKN049 BKN060 28/24 A2982 RMK AO1 LTG DSNT ALQDS TSB01
KOCH 282255Z 09004KT FEW040 SCT070 28/24 A2979 RMK AO1 LTG DSNT W
KOCH 282235Z 14005KT SCT040 28/24 A2980 RMK AO1 LTG DSNT W
KOCH 282215Z 13006KT FEW036 29/24 A2981 RMK AO1 LTG DSNT W
KOCH 282155Z 18006KT SCT035 BKN080 29/24 A2984 RMK AO1 LTG DSNT W
KOCH 282135Z 16008KT SCT036 BKN045 BKN070 30/24 A2985 RMK AO1
KOCH 282115Z 15009KT FEW037 SCT046 BKN065 31/24 A2987 RMK AO1
KOCH 282055Z 19009G14KT FEW040 FEW065 31/24 A2988 RMK AO1 57020
KOCH 282035Z 18009KT SCT027 BKN037 BKN044 31/24 A2989 RMK AO1
KOCH 282015Z 12008KT SCT027 BKN034 30/24 A2990 RMK AO1
KOCH 281955Z 16008G15KT FEW029 FEW034 31/24 A2990 RMK AO1
KOCH 281935Z 16008KT CLR 31/24 A2990 RMK AO1
KOCH 281915Z 15014KT CLR 30/23 A2991 RMK AO1
KOCH 281855Z 13011G15KT CLR 29/23 A2992 RMK AO1
KOCH 281835Z 14011G17KT CLR 29/23 A2992 RMK AO1
KOCH 281815Z 16013G16KT FEW095 29/22 A2993 RMK AO1
KOCH 281755Z 15012G19KT FEW095 28/22 A2994 RMK AO1 10280 20210 57014
KOCH 281735Z 16008KT FEW095 28/21 A2995 RMK AO1
KOCH 281715Z 14008KT SCT095 27/20 A2996 RMK AO1
KOCH 281655Z 13010G15KT SCT095 27/19 A2996 RMK AO1
KOCH 281635Z 12010G15KT FEW095 27/19 A2997 RMK AO1
KOCH 281615Z 12012G18KT CLR 27/19 A2997 RMK AO1
KOCH 281555Z 13012G18KT CLR 26/18 A2997 RMK AO1
KOCH 281535Z 12011G19KT FEW080 26/18 A2997 RMK AO1
KOCH 281515Z 11014G18KT BKN080 24/18 A2997 RMK AO1
KOCH 281455Z 11008KT OVC080 23/18 A2998 RMK AO1 52010
KOCH 281435Z 12008KT OVC080 22/18 A2999 RMK AO1
KOCH 281415Z 11009KT BKN080 OVC090 21/18 A3000 RMK AO1 LTG DSNT NE
KOCH 281355Z 13006KT FEW039 BKN047 OVC080 21/17 A3001 RMK AO1 LTG DSNT N
KOCH 281335Z 00000KT BKN041 OVC048 21/17 A3002 RMK AO1 LTG DSNT N
KOCH 281315Z 09007G15KT 070V130 BKN039 OVC050 22/17 A3000 RMK AO1 LTG DSNT N
KOCH 281255Z 08011G18KT BKN037 OVC050 22/17 A2998 RMK AO1
KOCH 281235Z 07009G27KT 030V100 FEW017 SCT029 OVC037 23/18 A2998 RMK AO1
KOCH 281215Z 06008G19KT 030V090 FEW015 SCT041 OVC050 24/22 A2997 RMK AO1
KOCH 281155Z 06006KT FEW031 SCT040 BKN046 25/22 A2995 RMK AO1 10250 20230 52047
KOCH 281135Z 04005KT FEW018 SCT024 BKN031 25/22 A2995 RMK AO1
KOCH 281115Z 04005KT SCT013 BKN019 OVC023 24/22 A2993 RMK AO1
KOCH 281055Z 03008KT OVC011 24/22 A2991 RMK AO1
KOCH 281035Z 00000KT OVC013 24/22 A2986 RMK AO1
KOCH 281015Z 16003KT OVC011 24/22 A2983 RMK AO1
KOCH 280955Z 00000KT BKN013 23/22 A2982 RMK AO1
KOCH 280935Z 16006KT BKN013 24/22 A2980 RMK AO1
KOCH 280915Z 15005KT BKN011 24/22 A2981 RMK AO1
KOCH 280855Z 17007KT OVC011 24/22 A2981 RMK AO1 57014
KOCH 280835Z 18005KT OVC011 24/22 A2981 RMK AO1
KOCH 280815Z 18007KT OVC013 24/22 A2982 RMK AO1
KOCH 280755Z 20007KT BKN015 BKN023 24/22 A2983 RMK AO1
KOCH 280735Z 19009KT SCT015 OVC023 24/22 A2983 RMK AO1
KOCH 280715Z 20009KT BKN017 OVC023 25/22 A2984 RMK AO1
KOCH 280655Z 21010KT BKN017 OVC022 25/22 A2984 RMK AO1
KOCH 280635Z 21010G14KT OVC017 25/22 A2985 RMK AO1
KOCH 280615Z 20008KT OVC017 25/22 A2985 RMK AO1
KOCH 280555Z 20008KT OVC017 25/22 A2985 RMK AO1 10310 20240 403200240 52007
KOCH 280535Z 19008KT OVC017 25/22 A2985 RMK AO1
KOCH 280515Z 20009KT OVC015 24/22 A2984 RMK AO1
KOCH 280455Z 19011G16KT BKN015 25/22 A2983 RMK AO1
KOCH 280435Z 19012G17KT BKN015 25/22 A2984 RMK AO1
KOCH 280415Z 20008KT BKN015 25/22 A2984 RMK AO1
KOCH 280355Z 18007KT FEW017 25/22 A2984 RMK AO1
KOCH 280335Z 19007KT CLR 26/22 A2984 RMK AO1
KOCH 280315Z 19008KT CLR 26/22 A2984 RMK AO1
KOCH 280255Z 20009KT CLR 26/22 A2983 RMK AO1 54000
KOCH 280235Z 18008KT CLR 26/22 A2982 RMK AO1
KOCH 280215Z 18009G15KT CLR 27/22 A2982 RMK AO1
KOCH 280155Z 17008KT CLR 27/22 A2982 RMK AO1
KOCH 280135Z 18009KT CLR 27/22 A2982 RMK AO1
KOCH 280115Z 17009G14KT CLR 28/23 A2982 RMK AO1
KOCH 280055Z 17007KT CLR 28/23 A2982 RMK AO1
KOCH 280035Z 16008KT CLR 29/23 A2982 RMK AO1
KOCH 280015Z 17007G14KT CLR 30/24 A2983 RMK AO1
KOCH 272355Z 18007KT CLR 31/24 A2983 RMK AO1 10320 20310 57010
KOCH 272335Z 18009KT CLR 31/24 A2983 RMK AO1


Page loaded:  11:32 UTC  |   04:32 AM Pacific  |   05:32 AM Mountain  |   06:32 AM Central  |   07:32 AM Eastern

 

ADVISORIES

FORECASTS

FORECASTS

OBSERVATIONS

USER TOOLS

ABOUT US